Time;durP1;ratioP1;P1;durP2;ratioP2;P2;SDS_P1;SDS_P2;PMS_P1;PMS_P2;Temp;Humidity;BMP_temperature;BMP_pressure;BME280_temperature;BME280_humidity;BME280_pressure;Samples;Min_cycle;Max_cycle;Signal;HPM_P1;HPM_P2
2021/05/19 00:00:06;;;;;;;25.02;8.63;;;;;;;;;;4910670;29;20082;-57
2021/05/19 00:02:35;;;;;;;29.10;9.00;;;;;;;;;;4907167;29;20088;-56
2021/05/19 00:05:03;;;;;;;21.52;9.13;;;;;;;;;;4903912;29;20104;-54
2021/05/19 00:07:30;;;;;;;20.30;9.65;;;;;;;;;;4904134;29;20494;-56
2021/05/19 00:09:56;;;;;;;22.37;10.97;;;;;;;;;;4909876;29;20160;-56
2021/05/19 00:12:23;;;;;;;22.05;9.90;;;;;;;;;;4906748;29;20071;-56
2021/05/19 00:14:50;;;;;;;24.02;10.82;;;;;;;;;;4907972;29;20044;-55
2021/05/19 00:17:17;;;;;;;23.02;10.60;;;;;;;;;;4908514;29;20049;-54
2021/05/19 00:19:45;;;;;;;26.80;11.07;;;;;;;;;;4910743;29;20076;-56
2021/05/19 00:22:12;;;;;;;22.45;10.13;;;;;;;;;;4906718;29;20048;-53
2021/05/19 00:24:39;;;;;;;26.10;10.82;;;;;;;;;;4908116;29;20052;-56
2021/05/19 00:27:05;;;;;;;23.67;11.55;;;;;;;;;;4911293;29;20048;-57
2021/05/19 00:29:32;;;;;;;30.70;10.77;;;;;;;;;;4912439;29;20044;-53
2021/05/19 00:31:59;;;;;;;24.95;11.13;;;;;;;;;;4883915;29;815771;-56
2021/05/19 00:34:26;;;;;;;29.77;12.25;;;;;;;;;;4897228;29;20047;-55
2021/05/19 00:36:53;;;;;;;26.52;12.55;;;;;;;;;;4908147;29;20071;-57
2021/05/19 00:39:20;;;;;;;31.30;11.17;;;;;;;;;;4911023;29;20070;-58
2021/05/19 00:41:47;;;;;;;22.70;10.50;;;;;;;;;;4905921;29;20063;-57
2021/05/19 00:44:16;;;;;;;30.08;11.50;;;;;;;;;;4905928;29;20053;-55
2021/05/19 00:46:44;;;;;;;29.58;12.93;;;;;;;;;;4905472;29;20052;-56
2021/05/19 00:49:12;;;;;;;27.55;10.23;;;;;;;;;;4896493;29;20036;-56
2021/05/19 00:51:39;;;;;;;40.47;13.50;;;;;;;;;;4910731;29;20407;-53
2021/05/19 00:54:06;;;;;;;32.45;13.30;;;;;;;;;;4911781;29;20068;-56
2021/05/19 00:56:35;;;;;;;34.90;13.48;;;;;;;;;;4912173;29;20048;-57
2021/05/19 00:59:02;;;;;;;32.55;14.10;;;;;;;;;;4891045;29;20134;-53
2021/05/19 01:01:37;;;;;;;37.65;13.48;;;;;;;;;;4898534;29;20052;-58
2021/05/19 01:04:07;;;;;;;28.15;13.15;;;;;;;;;;4907004;29;20057;-56
2021/05/19 01:06:59;;;;;;;35.15;13.90;;;;;;;;;;4906854;29;20056;-57
2021/05/19 01:09:35;;;;;;;29.70;14.35;;;;;;;;;;4914100;29;20425;-56
2021/05/19 01:12:21;;;;;;;28.60;14.55;;;;;;;;;;4909365;29;20044;-56
2021/05/19 01:14:49;;;;;;;44.58;15.05;;;;;;;;;;4906300;29;20083;-55
2021/05/19 01:17:17;;;;;;;37.58;15.55;;;;;;;;;;4906475;29;20139;-53
2021/05/19 01:19:44;;;;;;;38.38;15.88;;;;;;;;;;4908592;29;20048;-54
2021/05/19 01:22:11;;;;;;;;;;;;;;;;;;4915471;29;20031;-55
2021/05/19 01:24:39;;;;;;;34.00;13.02;;;;;;;;;;4894435;29;20308;-54
2021/05/19 01:27:07;;;;;;;54.28;18.05;;;;;;;;;;4893200;29;20052;-56
2021/05/19 01:29:34;;;;;;;;;;;;;;;;;;4891588;29;20044;-55
2021/05/19 01:32:01;;;;;;;35.85;13.40;;;;;;;;;;4888372;29;19950;-56
2021/05/19 01:34:28;;;;;;;;;;;;;;;;;;4875353;29;20045;-56
2021/05/19 01:36:55;;;;;;;36.90;16.05;;;;;;;;;;4875173;29;19924;-55
2021/05/19 01:39:22;;;;;;;54.65;19.55;;;;;;;;;;4881982;29;20590;-56
2021/05/19 01:41:50;;;;;;;42.63;17.00;;;;;;;;;;4890760;29;20041;-57
2021/05/19 01:44:18;;;;;;;44.85;16.55;;;;;;;;;;4876413;29;20049;-56
2021/05/19 01:46:58;;;;;;;52.33;19.08;;;;;;;;;;4892329;29;20052;-57
2021/05/19 01:49:29;;;;;;;59.17;19.43;;;;;;;;;;4885511;29;20061;-57
2021/05/19 01:51:58;;;;;;;55.35;20.80;;;;;;;;;;4887953;29;20053;-54
2021/05/19 01:54:26;;;;;;;58.05;20.33;;;;;;;;;;4876567;29;20080;-56
2021/05/19 01:56:53;;;;;;;44.40;18.45;;;;;;;;;;4875439;29;20401;-56
2021/05/19 01:59:21;;;;;;;49.83;17.40;;;;;;;;;;4885194;29;20125;-60
2021/05/19 02:01:51;;;;;;;45.63;16.67;;;;;;;;;;4873485;29;20071;-56
2021/05/19 02:04:20;;;;;;;52.13;19.23;;;;;;;;;;4886656;29;20105;-56
2021/05/19 02:06:55;;;;;;;46.30;19.10;;;;;;;;;;4889536;29;20044;-56
2021/05/19 02:09:32;;;;;;;52.40;20.02;;;;;;;;;;4877008;29;20050;-56
2021/05/19 02:12:03;;;;;;;60.92;21.38;;;;;;;;;;4876303;29;20509;-56
2021/05/19 02:14:31;;;;;;;74.85;23.17;;;;;;;;;;4874578;29;20522;-54
2021/05/19 02:16:58;;;;;;;60.35;20.15;;;;;;;;;;4877638;29;20041;-56
2021/05/19 02:19:24;;;;;;;63.05;22.27;;;;;;;;;;4883402;29;20048;-56
2021/05/19 02:21:56;;;;;;;68.40;24.13;;;;;;;;;;4883380;29;20110;-55
2021/05/19 02:24:25;;;;;;;59.38;24.42;;;;;;;;;;4874151;29;20112;-56
2021/05/19 02:26:54;;;;;;;62.53;22.63;;;;;;;;;;4887970;29;20052;-56
2021/05/19 02:29:23;;;;;;;79.18;24.92;;;;;;;;;;4871252;29;20056;-56
2021/05/19 02:31:50;;;;;;;79.72;25.52;;;;;;;;;;4877741;29;20063;-56
2021/05/19 02:34:17;;;;;;;67.20;23.00;;;;;;;;;;4884726;29;20063;-55
2021/05/19 02:36:52;;;;;;;77.35;24.33;;;;;;;;;;4887008;29;20301;-55
2021/05/19 02:39:20;;;;;;;71.88;24.65;;;;;;;;;;4879456;29;20080;-55
2021/05/19 02:41:53;;;;;;;76.03;25.20;;;;;;;;;;4885878;29;20080;-54
2021/05/19 02:44:19;;;;;;;83.53;25.02;;;;;;;;;;4883547;29;20055;-55
2021/05/19 02:46:46;;;;;;;72.27;25.83;;;;;;;;;;4886073;29;20109;-54
2021/05/19 02:49:13;;;;;;;83.47;26.40;;;;;;;;;;4882783;29;20049;-55
2021/05/19 02:51:40;;;;;;;95.63;28.25;;;;;;;;;;4886863;29;20077;-52
2021/05/19 02:54:08;;;;;;;94.03;28.48;;;;;;;;;;4888272;29;20729;-55
2021/05/19 02:56:35;;;;;;;86.53;27.95;;;;;;;;;;4887765;29;20488;-56
2021/05/19 02:59:03;;;;;;;51.00;19.60;;;;;;;;;;4890551;29;20045;-53
2021/05/19 03:01:30;;;;;;;87.65;28.00;;;;;;;;;;4889063;29;20045;-56
2021/05/19 03:03:57;;;;;;;110.00;29.50;;;;;;;;;;4877353;29;20168;-56
2021/05/19 03:06:25;;;;;;;87.57;29.27;;;;;;;;;;4890601;29;20056;-56
2021/05/19 03:08:52;;;;;;;78.88;27.98;;;;;;;;;;4891395;29;20064;-61
2021/05/19 03:11:19;;;;;;;81.30;27.85;;;;;;;;;;4888386;29;20104;-55
2021/05/19 03:13:46;;;;;;;95.03;29.53;;;;;;;;;;4883106;29;20128;-56
2021/05/19 03:16:13;;;;;;;91.40;28.63;;;;;;;;;;4893406;29;20053;-56
2021/05/19 03:18:40;;;;;;;95.40;27.65;;;;;;;;;;4880959;29;20042;-55
2021/05/19 03:21:07;;;;;;;103.03;29.85;;;;;;;;;;4887754;29;20045;-52
2021/05/19 03:23:34;;;;;;;89.03;29.05;;;;;;;;;;4888555;29;20071;-55
2021/05/19 03:26:01;;;;;;;;;;;;;;;;;;4890208;29;20048;-55
2021/05/19 03:28:28;;;;;;;92.22;26.83;;;;;;;;;;4889937;29;19927;-55
2021/05/19 03:30:55;;;;;;;80.60;28.05;;;;;;;;;;4892447;29;20497;-58
2021/05/19 03:33:22;;;;;;;65.53;22.17;;;;;;;;;;4910019;29;20139;-55
2021/05/19 03:35:49;;;;;;;58.78;21.38;;;;;;;;;;4911834;29;21046;-56
2021/05/19 03:38:15;;;;;;;52.97;21.03;;;;;;;;;;4915861;29;20067;-56
2021/05/19 03:40:44;;;;;;;50.47;20.50;;;;;;;;;;4913454;29;20052;-53
2021/05/19 03:43:11;;;;;;;54.88;20.35;;;;;;;;;;4911905;29;20045;-52
2021/05/19 03:45:38;;;;;;;68.78;22.40;;;;;;;;;;4909462;29;20568;-56
2021/05/19 03:48:06;;;;;;;;;;;;;;;;;;4910861;29;20036;-52
2021/05/19 03:50:34;;;;;;;60.60;19.90;;;;;;;;;;4909199;29;19979;-56
2021/05/19 03:53:02;;;;;;;56.00;20.38;;;;;;;;;;4911112;29;20130;-55
2021/05/19 03:55:29;;;;;;;50.15;18.95;;;;;;;;;;4911498;29;20056;-52
2021/05/19 03:57:56;;;;;;;38.58;16.00;;;;;;;;;;4908390;29;20100;-55
2021/05/19 04:00:24;;;;;;;36.30;14.43;;;;;;;;;;4913253;29;20044;-56
2021/05/19 04:02:51;;;;;;;38.50;12.15;;;;;;;;;;4913155;29;20044;-56
2021/05/19 04:05:19;;;;;;;39.35;10.95;;;;;;;;;;4915127;29;20048;-57
2021/05/19 04:07:49;;;;;;;29.95;9.43;;;;;;;;;;4913060;29;20048;-56
2021/05/19 04:10:17;;;;;;;28.73;8.80;;;;;;;;;;4914470;29;20044;-56
2021/05/19 04:12:44;;;;;;;21.17;7.90;;;;;;;;;;4912741;29;20123;-56
2021/05/19 04:15:11;;;;;;;29.63;9.27;;;;;;;;;;4911230;29;20071;-57
2021/05/19 04:17:38;;;;;;;22.35;7.82;;;;;;;;;;4910981;29;20488;-55
2021/05/19 04:20:05;;;;;;;28.48;8.30;;;;;;;;;;4911944;29;20097;-56
2021/05/19 04:22:31;;;;;;;23.77;8.07;;;;;;;;;;4903132;29;20515;-56
2021/05/19 04:24:58;;;;;;;21.63;8.50;;;;;;;;;;4907033;29;20047;-56
2021/05/19 04:27:25;;;;;;;21.50;8.37;;;;;;;;;;4908435;29;20447;-56
2021/05/19 04:29:52;;;;;;;17.63;8.23;;;;;;;;;;4908496;29;20923;-56
2021/05/19 04:32:19;;;;;;;16.75;7.72;;;;;;;;;;4911444;29;20300;-57
2021/05/19 04:34:47;;;;;;;;;;;;;;;;;;4902176;29;20044;-56
2021/05/19 04:37:13;;;;;;;23.42;7.03;;;;;;;;;;4907898;29;19927;-56
2021/05/19 04:39:40;;;;;;;17.55;6.85;;;;;;;;;;4904944;29;20417;-55
2021/05/19 04:42:07;;;;;;;20.90;6.50;;;;;;;;;;4910343;29;20044;-56
2021/05/19 04:44:33;;;;;;;20.80;7.55;;;;;;;;;;4904966;29;20063;-56
2021/05/19 04:47:01;;;;;;;16.90;6.80;;;;;;;;;;4903701;29;20075;-56
2021/05/19 04:49:28;;;;;;;18.70;7.22;;;;;;;;;;4907035;29;20464;-54
2021/05/19 04:51:54;;;;;;;15.90;6.70;;;;;;;;;;4906315;29;20081;-55
2021/05/19 04:54:21;;;;;;;13.48;6.47;;;;;;;;;;4904935;29;20408;-56
2021/05/19 04:56:47;;;;;;;18.80;7.25;;;;;;;;;;4908385;29;20480;-56
2021/05/19 04:59:14;;;;;;;18.98;6.55;;;;;;;;;;4900695;29;20037;-56
2021/05/19 05:01:41;;;;;;;;;;;;;;;;;;4910332;29;20497;-53
2021/05/19 05:04:09;;;;;;;19.27;6.32;;;;;;;;;;4905109;29;19931;-56
2021/05/19 05:06:36;;;;;;;20.48;6.55;;;;;;;;;;4906873;29;20525;-56
2021/05/19 05:09:03;;;;;;;23.83;6.93;;;;;;;;;;4903192;29;20049;-58
2021/05/19 05:11:29;;;;;;;16.48;6.30;;;;;;;;;;4906389;29;20510;-57
2021/05/19 05:13:56;;;;;;;17.25;6.50;;;;;;;;;;4914235;29;20417;-55
2021/05/19 05:16:24;;;;;;;18.60;6.60;;;;;;;;;;4911078;29;20040;-56
2021/05/19 05:18:51;;;;;;;18.58;7.45;;;;;;;;;;4904961;29;20515;-56
2021/05/19 05:21:19;;;;;;;20.60;5.85;;;;;;;;;;4909597;29;20080;-57
2021/05/19 05:23:50;;;;;;;11.55;5.75;;;;;;;;;;4911658;29;20051;-56
2021/05/19 05:26:18;;;;;;;15.38;5.93;;;;;;;;;;4907451;29;20040;-56
2021/05/19 05:28:45;;;;;;;15.40;4.82;;;;;;;;;;4909282;29;20108;-55
2021/05/19 05:31:12;;;;;;;14.45;5.63;;;;;;;;;;4905654;29;20472;-55
2021/05/19 05:33:39;;;;;;;15.18;5.43;;;;;;;;;;4901323;29;20624;-58
2021/05/19 05:36:06;;;;;;;14.23;5.20;;;;;;;;;;4907056;29;20044;-59
2021/05/19 05:38:33;;;;;;;16.00;5.55;;;;;;;;;;4903092;29;20409;-54
2021/05/19 05:41:00;;;;;;;12.83;5.87;;;;;;;;;;4905357;29;20410;-57
2021/05/19 05:43:27;;;;;;;17.60;5.43;;;;;;;;;;4899390;29;20489;-53
2021/05/19 05:45:54;;;;;;;17.85;6.30;;;;;;;;;;4904562;29;20122;-55
2021/05/19 05:48:21;;;;;;;21.80;6.25;;;;;;;;;;4908186;29;20060;-55
2021/05/19 05:50:48;;;;;;;20.65;6.47;;;;;;;;;;4911292;29;20096;-57
2021/05/19 05:53:15;;;;;;;12.13;5.68;;;;;;;;;;4909375;29;20066;-57
2021/05/19 05:55:42;;;;;;;15.17;5.90;;;;;;;;;;4907349;29;20127;-56
2021/05/19 05:58:10;;;;;;;14.55;5.63;;;;;;;;;;4914313;29;20297;-57
2021/05/19 06:00:37;;;;;;;12.32;5.28;;;;;;;;;;4910914;29;20112;-56
2021/05/19 06:03:04;;;;;;;12.80;4.80;;;;;;;;;;4909497;29;20056;-55
2021/05/19 06:05:31;;;;;;;20.20;5.50;;;;;;;;;;4908848;29;20032;-55
2021/05/19 06:08:01;;;;;;;12.60;5.22;;;;;;;;;;4906127;29;20123;-57
2021/05/19 06:10:28;;;;;;;15.00;5.60;;;;;;;;;;4912992;29;20100;-56
2021/05/19 06:12:55;;;;;;;12.75;4.82;;;;;;;;;;4903973;29;20052;-57
2021/05/19 06:15:23;;;;;;;17.05;5.75;;;;;;;;;;4908575;29;20813;-56
2021/05/19 06:17:50;;;;;;;7.32;4.15;;;;;;;;;;4909590;29;20051;-57
2021/05/19 06:20:17;;;;;;;12.63;4.43;;;;;;;;;;4905868;29;20048;-56
2021/05/19 06:22:44;;;;;;;18.27;4.93;;;;;;;;;;4912109;29;20049;-58
2021/05/19 06:25:12;;;;;;;10.43;4.73;;;;;;;;;;4907037;29;20044;-56
2021/05/19 06:27:38;;;;;;;10.93;4.93;;;;;;;;;;4904415;29;20309;-59
2021/05/19 06:30:06;;;;;;;10.50;5.05;;;;;;;;;;4908050;29;20044;-57
2021/05/19 06:32:33;;;;;;;;;;;;;;;;;;4906409;29;20060;-56
2021/05/19 06:35:00;;;;;;;10.93;4.28;;;;;;;;;;4890851;29;19947;-57
2021/05/19 06:37:27;;;;;;;6.73;3.70;;;;;;;;;;4908567;29;20056;-57
2021/05/19 06:39:56;;;;;;;11.32;4.60;;;;;;;;;;4903789;29;20296;-56
2021/05/19 06:42:23;;;;;;;11.68;4.30;;;;;;;;;;4906366;29;20048;-56
2021/05/19 06:44:50;;;;;;;;;;;;;;;;;;4911007;29;20044;-57
2021/05/19 06:47:17;;;;;;;8.75;3.88;;;;;;;;;;4904829;29;19923;-57
2021/05/19 06:49:44;;;;;;;7.67;4.13;;;;;;;;;;4908304;29;20048;-57
2021/05/19 06:52:11;;;;;;;7.80;3.53;;;;;;;;;;4907072;29;20291;-57
2021/05/19 06:54:38;;;;;;;11.13;4.22;;;;;;;;;;4907619;29;20363;-57
2021/05/19 06:57:04;;;;;;;11.82;4.20;;;;;;;;;;4905479;29;20050;-57
2021/05/19 06:59:32;;;;;;;12.68;4.57;;;;;;;;;;4908075;29;20144;-56
2021/05/19 07:01:59;;;;;;;8.23;3.80;;;;;;;;;;4911295;29;20127;-56
2021/05/19 07:04:26;;;;;;;13.07;3.85;;;;;;;;;;4909767;29;20056;-57
2021/05/19 07:06:53;;;;;;;20.00;4.38;;;;;;;;;;4911829;29;20062;-57
2021/05/19 07:09:20;;;;;;;11.90;4.20;;;;;;;;;;4891984;29;20052;-57
2021/05/19 07:11:47;;;;;;;13.55;3.75;;;;;;;;;;4908430;29;20036;-56
2021/05/19 07:14:17;;;;;;;9.77;3.92;;;;;;;;;;4906769;29;20442;-57
2021/05/19 07:16:54;;;;;;;7.05;3.47;;;;;;;;;;4911253;29;20033;-56
2021/05/19 07:19:22;;;;;;;6.47;3.30;;;;;;;;;;4906904;29;20053;-57
2021/05/19 07:21:49;;;;;;;9.47;3.77;;;;;;;;;;4912226;29;20051;-57
2021/05/19 07:24:17;;;;;;;11.35;3.38;;;;;;;;;;4907527;29;20059;-57
2021/05/19 07:26:46;;;;;;;7.10;3.33;;;;;;;;;;4909362;29;20493;-56
2021/05/19 07:29:13;;;;;;;10.18;3.15;;;;;;;;;;4908220;29;20048;-56
2021/05/19 07:31:41;;;;;;;10.15;3.55;;;;;;;;;;4909201;29;20084;-57
2021/05/19 07:34:08;;;;;;;7.07;3.00;;;;;;;;;;4910471;29;20048;-56
2021/05/19 07:36:35;;;;;;;8.65;3.80;;;;;;;;;;4915608;29;20454;-56
2021/05/19 07:39:06;;;;;;;13.55;3.63;;;;;;;;;;4909865;29;20066;-57
2021/05/19 07:41:34;;;;;;;8.38;2.90;;;;;;;;;;4908122;29;20568;-56
2021/05/19 07:44:01;;;;;;;6.18;2.90;;;;;;;;;;4909998;29;20044;-57
2021/05/19 07:46:28;;;;;;;5.00;3.05;;;;;;;;;;4907861;29;20051;-57
2021/05/19 07:48:54;;;;;;;7.63;3.00;;;;;;;;;;4909625;29;20039;-58
2021/05/19 07:51:20;;;;;;;8.95;3.95;;;;;;;;;;4905715;29;20456;-56
2021/05/19 07:53:45;;;;;;;7.68;3.00;;;;;;;;;;4911915;29;20111;-56
2021/05/19 07:56:20;;;;;;;12.18;3.67;;;;;;;;;;4906501;29;20040;-56
2021/05/19 07:58:55;;;;;;;7.47;3.25;;;;;;;;;;4911957;29;21197;-55
2021/05/19 08:02:04;;;;;;;8.30;3.50;;;;;;;;;;4909079;29;20119;-56
2021/05/19 08:04:10;;;;;;;11.88;4.03;;;;;;;;;;4901649;29;20519;-57
2021/05/19 08:06:36;;;;;;;8.55;3.08;;;;;;;;;;4905883;29;20082;-57
2021/05/19 08:09:04;;;;;;;6.03;2.90;;;;;;;;;;4911336;29;20081;-57
2021/05/19 08:11:30;;;;;;;7.63;3.08;;;;;;;;;;4909216;29;20115;-57
2021/05/19 08:13:59;;;;;;;11.30;3.10;;;;;;;;;;4908209;29;20429;-56
2021/05/19 08:16:25;;;;;;;7.05;2.80;;;;;;;;;;4909831;29;20032;-56
2021/05/19 08:18:51;;;;;;;4.20;2.88;;;;;;;;;;4904986;29;20188;-56
2021/05/19 08:21:17;;;;;;;6.10;2.72;;;;;;;;;;4910970;29;20079;-57
2021/05/19 08:23:46;;;;;;;;;;;;;;;;;;4907563;29;20104;-56
2021/05/19 08:26:13;;;;;;;8.57;2.53;;;;;;;;;;4909414;29;19958;-57
2021/05/19 08:28:40;;;;;;;;;;;;;;;;;;4910610;29;20157;-57
2021/05/19 08:31:08;;;;;;;6.32;2.90;;;;;;;;;;4910133;29;19930;-58
2021/05/19 08:33:45;;;;;;;5.55;2.70;;;;;;;;;;4893241;29;20045;-55
2021/05/19 08:36:12;;;;;;;;;;;;;;;;;;4890722;29;20051;-57
2021/05/19 08:38:38;;;;;;;8.35;2.58;;;;;;;;;;4887039;29;20030;-57
2021/05/19 08:41:06;;;;;;;4.43;2.78;;;;;;;;;;4890563;29;20123;-58
2021/05/19 08:43:34;;;;;;;7.78;3.00;;;;;;;;;;4890135;29;20041;-57
2021/05/19 08:46:03;;;;;;;4.30;2.80;;;;;;;;;;4889253;29;20702;-57
2021/05/19 08:48:31;;;;;;;6.50;3.00;;;;;;;;;;4886841;29;20052;-57
2021/05/19 08:50:57;;;;;;;8.45;3.20;;;;;;;;;;4886381;29;20045;-58
2021/05/19 08:53:25;;;;;;;;;;;;;;;;;;4889375;29;20087;-57
2021/05/19 08:55:52;;;;;;;5.32;2.80;;;;;;;;;;4886002;29;20026;-57
2021/05/19 08:58:18;;;;;;;9.18;2.70;;;;;;;;;;4885229;29;20041;-58
2021/05/19 09:00:45;;;;;;;6.47;2.85;;;;;;;;;;4891885;29;20056;-55
2021/05/19 09:03:12;;;;;;;6.80;2.80;;;;;;;;;;4890115;29;20048;-56
2021/05/19 09:05:41;;;;;;;9.20;3.15;;;;;;;;;;4888940;29;20051;-57
2021/05/19 09:08:09;;;;;;;4.53;2.42;;;;;;;;;;4890427;29;20052;-56
2021/05/19 09:10:36;;;;;;;;;;;;;;;;;;4887832;29;20059;-57
2021/05/19 09:13:04;;;;;;;6.25;2.70;;;;;;;;;;4892074;29;19924;-58
2021/05/19 09:15:49;;;;;;;11.43;3.38;;;;;;;;;;4889495;29;20054;-58
2021/05/19 09:18:18;;;;;;;4.80;2.90;;;;;;;;;;4887316;29;20045;-57
2021/05/19 09:20:46;;;;;;;6.13;2.55;;;;;;;;;;4885634;29;20056;-58
2021/05/19 09:23:18;;;;;;;7.70;2.58;;;;;;;;;;4884773;29;20085;-58
2021/05/19 09:26:01;;;;;;;6.53;2.65;;;;;;;;;;4882252;29;20045;-58
2021/05/19 09:28:28;;;;;;;4.15;2.33;;;;;;;;;;4886609;29;20056;-57
2021/05/19 09:30:59;;;;;;;5.28;2.80;;;;;;;;;;4885648;29;20060;-57
2021/05/19 09:33:28;;;;;;;6.05;3.03;;;;;;;;;;4903102;29;20098;-58
2021/05/19 09:36:15;;;;;;;4.50;2.63;;;;;;;;;;4905671;29;20527;-58
2021/05/19 09:38:45;;;;;;;4.30;2.50;;;;;;;;;;4908092;29;20096;-57
2021/05/19 09:41:16;;;;;;;6.00;2.90;;;;;;;;;;4910048;29;20074;-57
2021/05/19 09:43:48;;;;;;;4.93;2.30;;;;;;;;;;4909350;29;20071;-57
2021/05/19 09:46:22;;;;;;;3.63;2.50;;;;;;;;;;4909163;29;20036;-58
2021/05/19 09:49:09;;;;;;;9.60;2.65;;;;;;;;;;4908690;29;20135;-61
2021/05/19 09:51:35;;;;;;;4.40;3.00;;;;;;;;;;4905002;29;21512;-57
2021/05/19 09:54:03;;;;;;;4.80;2.55;;;;;;;;;;4906288;29;20048;-57
2021/05/19 09:56:33;;;;;;;5.35;2.20;;;;;;;;;;4903403;29;20036;-58
2021/05/19 09:59:01;;;;;;;4.95;2.25;;;;;;;;;;4913750;29;20048;-56
2021/05/19 10:01:28;;;;;;;3.15;2.53;;;;;;;;;;4911935;29;20044;-58
2021/05/19 10:03:58;;;;;;;16.98;3.33;;;;;;;;;;4909307;29;20111;-57
2021/05/19 10:06:28;;;;;;;3.70;2.70;;;;;;;;;;4905450;29;20771;-58
2021/05/19 10:09:07;;;;;;;3.90;2.58;;;;;;;;;;4909924;29;20050;-58
2021/05/19 10:11:34;;;;;;;5.93;2.88;;;;;;;;;;4909035;29;20059;-57
2021/05/19 10:14:03;;;;;;;6.43;2.60;;;;;;;;;;4906324;29;20060;-56
2021/05/19 10:16:30;;;;;;;7.80;2.90;;;;;;;;;;4909530;29;20044;-57
2021/05/19 10:19:00;;;;;;;5.05;2.92;;;;;;;;;;4904703;29;20126;-58
2021/05/19 10:21:29;;;;;;;6.03;3.03;;;;;;;;;;4910131;29;20122;-58
2021/05/19 10:24:10;;;;;;;4.00;2.55;;;;;;;;;;4894939;29;20437;-58
2021/05/19 10:26:55;;;;;;;6.05;2.55;;;;;;;;;;4904318;29;20091;-57
2021/05/19 10:29:41;;;;;;;4.68;2.38;;;;;;;;;;4905195;29;20084;-58
2021/05/19 10:32:21;;;;;;;8.05;2.50;;;;;;;;;;4903623;29;20603;-58
2021/05/19 10:34:48;;;;;;;4.97;2.78;;;;;;;;;;4912562;29;20048;-57
2021/05/19 10:37:31;;;;;;;7.07;3.20;;;;;;;;;;4911377;29;20135;-58
2021/05/19 10:40:08;;;;;;;4.00;2.65;;;;;;;;;;4910911;29;20056;-58
2021/05/19 10:42:36;;;;;;;3.85;2.78;;;;;;;;;;4909829;29;20089;-57
2021/05/19 10:45:03;;;;;;;3.20;2.45;;;;;;;;;;4914988;29;20055;-57
2021/05/19 10:47:32;;;;;;;8.30;3.00;;;;;;;;;;4906475;29;20496;-58
2021/05/19 10:50:07;;;;;;;4.00;2.70;;;;;;;;;;4907840;29;20049;-57
2021/05/19 10:57:12;;;;;;;5.38;2.80;;;;;;;;;;4909013;29;20059;-58
2021/05/19 11:01:08;;;;;;;4.10;2.70;;;;;;;;;;4909602;29;20044;-57
2021/05/19 11:03:34;;;;;;;4.10;3.03;;;;;;;;;;4907279;29;20093;-57
2021/05/19 11:06:02;;;;;;;5.97;2.88;;;;;;;;;;4910989;29;20085;-57
2021/05/19 11:08:29;;;;;;;;;;;;;;;;;;4906350;29;20137;-58
2021/05/19 11:11:24;;;;;;;5.28;2.85;;;;;;;;;;4909987;29;19923;-58
2021/05/19 11:13:59;;;;;;;8.70;3.30;;;;;;;;;;4910303;29;20043;-57
2021/05/19 11:16:55;;;;;;;8.68;2.95;;;;;;;;;;4910259;29;20053;-57
2021/05/19 11:19:26;;;;;;;5.88;3.30;;;;;;;;;;4910149;29;20624;-58
2021/05/19 11:21:56;;;;;;;6.05;3.40;;;;;;;;;;4910922;29;20055;-57
2021/05/19 11:24:26;;;;;;;8.27;3.08;;;;;;;;;;4911059;29;20044;-58
2021/05/19 11:26:53;;;;;;;4.72;2.70;;;;;;;;;;4908196;29;20124;-57
2021/05/19 11:29:20;;;;;;;6.68;3.15;;;;;;;;;;4912288;29;20112;-57
2021/05/19 11:31:54;;;;;;;4.82;2.95;;;;;;;;;;4905719;29;20127;-57
2021/05/19 11:34:25;;;;;;;4.25;2.70;;;;;;;;;;4912484;29;20055;-57
2021/05/19 11:36:57;;;;;;;5.85;3.53;;;;;;;;;;4902662;29;20522;-57
2021/05/19 11:39:25;;;;;;;3.75;3.28;;;;;;;;;;4910884;29;20058;-58
2021/05/19 11:42:08;;;;;;;7.80;3.97;;;;;;;;;;4904712;29;20055;-57
2021/05/19 11:44:38;;;;;;;5.60;3.58;;;;;;;;;;4912883;29;20048;-58
2021/05/19 11:47:05;;;;;;;6.53;3.67;;;;;;;;;;4909834;29;20147;-57
2021/05/19 11:49:32;;;;;;;6.28;3.40;;;;;;;;;;4914465;29;20076;-58
2021/05/19 11:51:59;;;;;;;9.32;3.45;;;;;;;;;;4910558;29;20044;-58
2021/05/19 11:54:27;;;;;;;8.77;3.30;;;;;;;;;;4915026;29;20048;-58
2021/05/19 11:57:00;;;;;;;9.98;3.22;;;;;;;;;;4910846;29;20044;-58
2021/05/19 11:59:35;;;;;;;5.20;3.20;;;;;;;;;;4910234;29;20057;-57
2021/05/19 12:02:11;;;;;;;3.45;2.92;;;;;;;;;;4904706;29;20068;-57
2021/05/19 12:04:41;;;;;;;4.90;2.83;;;;;;;;;;4905081;29;20409;-58
2021/05/19 12:07:08;;;;;;;3.58;2.60;;;;;;;;;;4908739;29;20055;-58
2021/05/19 12:09:35;;;;;;;;;;;;;;;;;;4910276;29;20056;-57
2021/05/19 12:12:07;;;;;;;3.65;2.95;;;;;;;;;;4915438;29;19923;-58
2021/05/19 12:14:34;;;;;;;4.90;2.92;;;;;;;;;;4911560;29;20386;-56
2021/05/19 12:17:01;;;;;;;6.68;3.40;;;;;;;;;;4911920;29;20087;-58
2021/05/19 12:19:33;;;;;;;4.60;2.90;;;;;;;;;;4908791;29;20052;-58
2021/05/19 12:22:07;;;;;;;7.22;3.40;;;;;;;;;;4908885;29;20090;-57
2021/05/19 12:24:34;;;;;;;4.13;3.22;;;;;;;;;;4904504;29;20532;-58
2021/05/19 12:27:02;;;;;;;7.72;3.40;;;;;;;;;;4908191;29;20040;-57
2021/05/19 12:29:38;;;;;;;4.22;3.42;;;;;;;;;;4906763;29;20048;-58
2021/05/19 12:32:11;;;;;;;4.80;3.15;;;;;;;;;;4909794;29;20055;-58
2021/05/19 12:34:38;;;;;;;4.25;3.10;;;;;;;;;;4909444;29;20100;-57
2021/05/19 12:37:06;;;;;;;4.55;3.33;;;;;;;;;;4908918;29;20115;-58
2021/05/19 12:39:34;;;;;;;6.53;3.22;;;;;;;;;;4910486;29;20052;-58
2021/05/19 12:42:13;;;;;;;7.45;3.35;;;;;;;;;;4905727;29;20068;-59
2021/05/19 12:44:41;;;;;;;6.38;3.75;;;;;;;;;;4912453;29;20059;-58
2021/05/19 12:47:10;;;;;;;3.88;3.30;;;;;;;;;;4908024;29;20059;-58
2021/05/19 12:49:38;;;;;;;8.65;3.40;;;;;;;;;;4907044;29;20052;-58
2021/05/19 12:52:07;;;;;;;4.35;3.00;;;;;;;;;;4902294;29;20037;-57
2021/05/19 12:54:34;;;;;;;7.68;3.13;;;;;;;;;;4907021;29;20435;-58
2021/05/19 12:57:03;;;;;;;4.25;2.67;;;;;;;;;;4904737;29;20041;-57
2021/05/19 12:59:48;;;;;;;5.90;3.08;;;;;;;;;;4908475;29;20056;-56
2021/05/19 13:02:15;;;;;;;8.13;3.35;;;;;;;;;;4905247;29;20048;-56
2021/05/19 13:04:47;;;;;;;6.60;3.25;;;;;;;;;;4905501;29;20127;-58
2021/05/19 13:07:16;;;;;;;5.68;2.78;;;;;;;;;;4910992;29;20544;-58
2021/05/19 13:09:46;;;;;;;5.20;2.80;;;;;;;;;;4909627;29;20048;-58
2021/05/19 13:12:19;;;;;;;7.47;2.88;;;;;;;;;;4912263;29;20058;-58
2021/05/19 13:14:49;;;;;;;4.88;2.88;;;;;;;;;;4905695;29;20047;-57
2021/05/19 13:17:53;;;;;;;4.72;2.85;;;;;;;;;;4906157;29;20147;-57
2021/05/19 13:20:23;;;;;;;3.58;2.47;;;;;;;;;;4878651;29;20063;-58
2021/05/19 13:22:58;;;;;;;3.67;2.47;;;;;;;;;;4905650;29;20048;-57
2021/05/19 13:25:25;;;;;;;4.70;3.00;;;;;;;;;;4910498;29;20119;-57
2021/05/19 13:27:52;;;;;;;6.53;3.20;;;;;;;;;;4906523;29;20050;-57
2021/05/19 13:30:24;;;;;;;6.57;3.38;;;;;;;;;;4908731;29;20075;-56
2021/05/19 13:33:15;;;;;;;6.40;3.15;;;;;;;;;;4907205;29;20059;-57
2021/05/19 13:38:28;;;;;;;4.35;2.92;;;;;;;;;;4909385;29;20485;-58
2021/05/19 13:40:54;;;;;;;7.53;3.10;;;;;;;;;;4903864;29;20051;-58
2021/05/19 13:43:21;;;;;;;5.32;3.13;;;;;;;;;;4891008;29;20409;-60
2021/05/19 13:45:49;;;;;;;6.95;2.83;;;;;;;;;;4907477;29;20039;-57
2021/05/19 13:48:16;;;;;;;6.20;3.22;;;;;;;;;;4907473;29;20048;-57
2021/05/19 13:50:42;;;;;;;8.02;2.75;;;;;;;;;;4901891;29;20050;-56
2021/05/19 13:53:09;;;;;;;6.28;3.05;;;;;;;;;;4894136;29;20416;-56
2021/05/19 13:55:36;;;;;;;6.90;2.83;;;;;;;;;;4909267;29;20128;-58
2021/05/19 13:58:03;;;;;;;5.65;2.95;;;;;;;;;;4909135;29;20044;-58
2021/05/19 14:00:30;;;;;;;4.27;2.90;;;;;;;;;;4906792;29;20127;-57
2021/05/19 14:02:56;;;;;;;6.27;3.23;;;;;;;;;;4905586;29;20295;-58
2021/05/19 14:05:27;;;;;;;4.50;3.15;;;;;;;;;;4906365;29;20052;-57
2021/05/19 14:07:55;;;;;;;4.80;2.47;;;;;;;;;;4909239;29;20091;-57
2021/05/19 14:10:25;;;;;;;3.63;2.33;;;;;;;;;;4904199;29;20062;-57
2021/05/19 14:12:56;;;;;;;8.05;2.72;;;;;;;;;;4907301;29;20044;-56
2021/05/19 14:15:50;;;;;;;3.03;2.40;;;;;;;;;;4906206;29;20054;-57
2021/05/19 14:29:00;;;;;;;5.03;2.08;;;;;;;;;;4901429;29;20063;-58
2021/05/19 14:31:28;;;;;;;5.03;2.50;;;;;;;;;;4888570;29;20041;-57
2021/05/19 14:33:55;;;;;;;6.25;2.40;;;;;;;;;;4904870;29;20041;-57
2021/05/19 14:36:37;;;;;;;4.43;2.08;;;;;;;;;;4910694;29;20052;-58
2021/05/19 14:39:58;;;;;;;4.65;2.28;;;;;;;;;;4904883;29;20063;-58
2021/05/19 15:01:21;;;;;;;3.08;2.00;;;;;;;;;;4894153;29;20059;-57
2021/05/19 15:03:48;;;;;;;5.53;2.08;;;;;;;;;;4907012;29;20072;-57
2021/05/19 15:06:14;;;;;;;9.73;2.28;;;;;;;;;;4900257;29;20047;-57
2021/05/19 15:08:42;;;;;;;5.13;2.38;;;;;;;;;;4905730;29;20572;-58
2021/05/19 15:11:08;;;;;;;2.17;1.88;;;;;;;;;;4905203;29;20108;-57
2021/05/19 15:13:35;;;;;;;4.63;2.60;;;;;;;;;;4904077;29;20040;-58
2021/05/19 15:16:03;;;;;;;5.78;2.40;;;;;;;;;;4904933;29;20049;-55
2021/05/19 15:18:30;;;;;;;6.20;2.70;;;;;;;;;;4901130;29;20056;-57
2021/05/19 15:20:57;;;;;;;6.20;2.90;;;;;;;;;;4910048;29;20394;-57
2021/05/19 15:23:25;;;;;;;4.68;2.63;;;;;;;;;;4892615;29;20068;-58
2021/05/19 15:25:52;;;;;;;3.85;2.40;;;;;;;;;;4908984;29;20516;-57
2021/05/19 15:28:19;;;;;;;4.85;2.53;;;;;;;;;;4912530;29;20448;-57